Pagina principale
METAR-TAF:

METAR-TAF

Aeroporti :

Lahr, Germania

latitudine: 48-22-09N, longitudine: 007-49-40E, altezza: 156 m

Osservazione

Il bollettino è stato emesso 10 ore e 19 minuti fa, alle 15:50 UTC
Vento 6 kt da nord
Temperature 1°C
Umidità 80%
Pressione 1023 hPa
Visibilità 10 km o più
nessuna nube inferiore a 1500 m e nessun cumulonembo

METAR: EDTL 291550Z 01006KT CAVOK 01/M02 Q1023

Ora: 03:09 (02:09 UTC)

Previsione

Il bollettino è stato emesso 9 ore e 9 minuti fa, alle 17:00 UTC
Previsione valida dal 29 alle 18 UTC al 29 alle 24 UTC
Vento 5 kt da nord/nord-est
Visibilità 10 km o più
nessuna nube inferiore a 1500 m e nessun cumulonembo
Probabilità 30% :
Temporaneamente
dal 29 alle 23 UTC al 29 alle 24 UTC
Visibilità: 1000 m
banchi di nebbia

TAF: EDTL 291700Z 2918/2924 03005KT CAVOK PROB30 TEMPO 2923/2924 1000 BCFG

Osservazioni e previsioni meteorologiche di più di 4000 aeroporti (messaggi METAR e TAF).

Le stazioni disponibili sono rappresentate dai dischi gialli e rossi sulla carta.

Puntare il mouse per vedere il nome della stazione.

Clicca sopra per visualizzare le osservazioni e previsioni meteorologiche.

Per cambiare la mappa : fare clic sui pulsanti verdi con una croce nera per ingrandire, il pulsante verde con un trattino per diminuire, o sulla freccia verde per le mappe adiacenti.


METAR-TAF: